sensor_id;sensor_type;location;lat;lon;timestamp;P1;durP1;ratioP1;P2;durP2;ratioP2
31760;SDS011;18335;51.486;7.562;2023-01-09T00:01:36;4.40;;;1.38;;
31760;SDS011;18335;51.486;7.562;2023-01-09T00:04:04;5.07;;;1.33;;
31760;SDS011;18335;51.486;7.562;2023-01-09T00:06:33;6.07;;;2.17;;
31760;SDS011;18335;51.486;7.562;2023-01-09T00:09:00;3.70;;;0.90;;
31760;SDS011;18335;51.486;7.562;2023-01-09T00:11:27;4.32;;;1.15;;
31760;SDS011;18335;51.486;7.562;2023-01-09T00:13:54;2.95;;;1.05;;
31760;SDS011;18335;51.486;7.562;2023-01-09T00:16:21;2.20;;;1.10;;
31760;SDS011;18335;51.486;7.562;2023-01-09T00:18:47;2.65;;;0.90;;
31760;SDS011;18335;51.486;7.562;2023-01-09T00:21:15;3.83;;;1.10;;
31760;SDS011;18335;51.486;7.562;2023-01-09T00:23:43;2.67;;;1.15;;
31760;SDS011;18335;51.486;7.562;2023-01-09T00:26:10;3.70;;;0.80;;
31760;SDS011;18335;51.486;7.562;2023-01-09T00:28:38;3.00;;;0.68;;
31760;SDS011;18335;51.486;7.562;2023-01-09T00:31:06;1.48;;;0.70;;
31760;SDS011;18335;51.486;7.562;2023-01-09T00:33:34;7.80;;;1.65;;
31760;SDS011;18335;51.486;7.562;2023-01-09T00:36:04;6.22;;;0.77;;
31760;SDS011;18335;51.486;7.562;2023-01-09T00:38:31;3.00;;;1.00;;
31760;SDS011;18335;51.486;7.562;2023-01-09T00:40:59;3.42;;;0.80;;
31760;SDS011;18335;51.486;7.562;2023-01-09T00:43:28;3.60;;;0.90;;
31760;SDS011;18335;51.486;7.562;2023-01-09T00:45:57;1.63;;;0.85;;
31760;SDS011;18335;51.486;7.562;2023-01-09T00:48:27;1.48;;;0.60;;
31760;SDS011;18335;51.486;7.562;2023-01-09T00:50:54;3.90;;;0.68;;
31760;SDS011;18335;51.486;7.562;2023-01-09T00:53:25;1.08;;;0.40;;
31760;SDS011;18335;51.486;7.562;2023-01-09T00:55:56;2.53;;;0.52;;
31760;SDS011;18335;51.486;7.562;2023-01-09T00:58:30;1.95;;;0.47;;
31760;SDS011;18335;51.486;7.562;2023-01-09T01:00:57;2.92;;;0.40;;
31760;SDS011;18335;51.486;7.562;2023-01-09T01:03:24;2.00;;;0.40;;
31760;SDS011;18335;51.486;7.562;2023-01-09T01:05:51;0.90;;;0.30;;
31760;SDS011;18335;51.486;7.562;2023-01-09T01:08:36;0.43;;;0.22;;
31760;SDS011;18335;51.486;7.562;2023-01-09T01:11:04;2.20;;;0.50;;
31760;SDS011;18335;51.486;7.562;2023-01-09T01:13:33;1.48;;;0.30;;
31760;SDS011;18335;51.486;7.562;2023-01-09T01:16:01;0.75;;;0.20;;
31760;SDS011;18335;51.486;7.562;2023-01-09T01:18:29;2.38;;;0.52;;
31760;SDS011;18335;51.486;7.562;2023-01-09T01:20:56;1.85;;;0.52;;
31760;SDS011;18335;51.486;7.562;2023-01-09T01:23:23;0.45;;;0.30;;
31760;SDS011;18335;51.486;7.562;2023-01-09T01:25:50;2.50;;;0.40;;
31760;SDS011;18335;51.486;7.562;2023-01-09T01:28:18;1.17;;;0.30;;
31760;SDS011;18335;51.486;7.562;2023-01-09T01:30:45;1.20;;;0.40;;
31760;SDS011;18335;51.486;7.562;2023-01-09T01:33:11;0.77;;;0.25;;
31760;SDS011;18335;51.486;7.562;2023-01-09T01:35:38;2.20;;;0.40;;
31760;SDS011;18335;51.486;7.562;2023-01-09T01:38:05;1.30;;;0.45;;
31760;SDS011;18335;51.486;7.562;2023-01-09T01:40:31;2.55;;;0.30;;
31760;SDS011;18335;51.486;7.562;2023-01-09T01:42:58;0.45;;;0.20;;
31760;SDS011;18335;51.486;7.562;2023-01-09T01:45:27;2.25;;;0.32;;
31760;SDS011;18335;51.486;7.562;2023-01-09T01:47:57;2.28;;;0.57;;
31760;SDS011;18335;51.486;7.562;2023-01-09T01:50:28;1.55;;;0.28;;
31760;SDS011;18335;51.486;7.562;2023-01-09T01:53:00;1.00;;;0.30;;
31760;SDS011;18335;51.486;7.562;2023-01-09T01:55:32;1.33;;;0.28;;
31760;SDS011;18335;51.486;7.562;2023-01-09T01:58:02;0.40;;;0.20;;
31760;SDS011;18335;51.486;7.562;2023-01-09T02:00:32;2.70;;;0.30;;
31760;SDS011;18335;51.486;7.562;2023-01-09T02:03:02;0.82;;;0.38;;
31760;SDS011;18335;51.486;7.562;2023-01-09T02:05:31;1.70;;;0.30;;
31760;SDS011;18335;51.486;7.562;2023-01-09T02:07:58;1.15;;;0.22;;
31760;SDS011;18335;51.486;7.562;2023-01-09T02:10:25;3.40;;;0.22;;
31760;SDS011;18335;51.486;7.562;2023-01-09T02:12:52;0.70;;;0.40;;
31760;SDS011;18335;51.486;7.562;2023-01-09T02:15:19;0.80;;;0.30;;
31760;SDS011;18335;51.486;7.562;2023-01-09T02:20:47;0.55;;;0.20;;
31760;SDS011;18335;51.486;7.562;2023-01-09T02:32:44;0.57;;;0.30;;
31760;SDS011;18335;51.486;7.562;2023-01-09T02:35:34;0.77;;;0.20;;
31760;SDS011;18335;51.486;7.562;2023-01-09T02:38:13;0.80;;;0.25;;
31760;SDS011;18335;51.486;7.562;2023-01-09T02:40:46;4.35;;;0.55;;
31760;SDS011;18335;51.486;7.562;2023-01-09T02:43:18;1.45;;;0.38;;
31760;SDS011;18335;51.486;7.562;2023-01-09T02:45:46;1.90;;;0.43;;
31760;SDS011;18335;51.486;7.562;2023-01-09T02:48:14;1.80;;;0.60;;
31760;SDS011;18335;51.486;7.562;2023-01-09T02:50:41;0.98;;;0.50;;
31760;SDS011;18335;51.486;7.562;2023-01-09T02:56:17;1.10;;;0.40;;
31760;SDS011;18335;51.486;7.562;2023-01-09T02:59:01;4.25;;;0.45;;
31760;SDS011;18335;51.486;7.562;2023-01-09T03:01:40;2.70;;;1.00;;
31760;SDS011;18335;51.486;7.562;2023-01-09T03:04:18;0.80;;;0.63;;
31760;SDS011;18335;51.486;7.562;2023-01-09T03:06:52;2.00;;;1.00;;
31760;SDS011;18335;51.486;7.562;2023-01-09T03:09:25;3.75;;;1.00;;
31760;SDS011;18335;51.486;7.562;2023-01-09T03:11:56;3.33;;;0.82;;
31760;SDS011;18335;51.486;7.562;2023-01-09T03:14:28;4.07;;;0.70;;
31760;SDS011;18335;51.486;7.562;2023-01-09T03:16:59;4.47;;;1.05;;
31760;SDS011;18335;51.486;7.562;2023-01-09T03:19:32;3.10;;;0.90;;
31760;SDS011;18335;51.486;7.562;2023-01-09T03:22:01;5.90;;;1.27;;
31760;SDS011;18335;51.486;7.562;2023-01-09T03:24:28;4.28;;;0.70;;
31760;SDS011;18335;51.486;7.562;2023-01-09T03:26:55;5.65;;;1.00;;
31760;SDS011;18335;51.486;7.562;2023-01-09T03:29:22;1.85;;;0.60;;
31760;SDS011;18335;51.486;7.562;2023-01-09T03:31:48;3.20;;;0.75;;
31760;SDS011;18335;51.486;7.562;2023-01-09T03:34:15;4.57;;;0.95;;
31760;SDS011;18335;51.486;7.562;2023-01-09T03:36:43;3.00;;;0.93;;
31760;SDS011;18335;51.486;7.562;2023-01-09T03:39:10;3.50;;;1.15;;
31760;SDS011;18335;51.486;7.562;2023-01-09T03:41:36;5.93;;;1.30;;
31760;SDS011;18335;51.486;7.562;2023-01-09T03:44:03;5.15;;;1.08;;
31760;SDS011;18335;51.486;7.562;2023-01-09T03:46:30;4.78;;;1.58;;
31760;SDS011;18335;51.486;7.562;2023-01-09T03:48:57;6.18;;;1.52;;
31760;SDS011;18335;51.486;7.562;2023-01-09T03:51:23;4.18;;;1.05;;
31760;SDS011;18335;51.486;7.562;2023-01-09T03:53:51;3.47;;;1.20;;
31760;SDS011;18335;51.486;7.562;2023-01-09T03:56:18;3.88;;;1.33;;
31760;SDS011;18335;51.486;7.562;2023-01-09T03:58:45;4.30;;;1.20;;
31760;SDS011;18335;51.486;7.562;2023-01-09T04:01:14;3.10;;;0.88;;
31760;SDS011;18335;51.486;7.562;2023-01-09T04:03:40;6.90;;;1.15;;
31760;SDS011;18335;51.486;7.562;2023-01-09T04:06:07;6.40;;;1.45;;
31760;SDS011;18335;51.486;7.562;2023-01-09T04:08:34;5.75;;;1.90;;
31760;SDS011;18335;51.486;7.562;2023-01-09T04:11:02;5.43;;;1.42;;
31760;SDS011;18335;51.486;7.562;2023-01-09T04:13:29;5.75;;;1.65;;
31760;SDS011;18335;51.486;7.562;2023-01-09T04:15:56;6.78;;;2.17;;
31760;SDS011;18335;51.486;7.562;2023-01-09T04:18:22;2.30;;;1.30;;
31760;SDS011;18335;51.486;7.562;2023-01-09T04:20:49;6.80;;;1.67;;
31760;SDS011;18335;51.486;7.562;2023-01-09T04:23:16;4.10;;;1.73;;
31760;SDS011;18335;51.486;7.562;2023-01-09T04:25:43;6.75;;;1.50;;
31760;SDS011;18335;51.486;7.562;2023-01-09T04:28:14;5.88;;;1.52;;
31760;SDS011;18335;51.486;7.562;2023-01-09T04:30:41;4.57;;;1.48;;
31760;SDS011;18335;51.486;7.562;2023-01-09T04:33:07;6.13;;;1.30;;
31760;SDS011;18335;51.486;7.562;2023-01-09T04:35:34;4.78;;;1.30;;
31760;SDS011;18335;51.486;7.562;2023-01-09T04:38:01;4.30;;;1.50;;
31760;SDS011;18335;51.486;7.562;2023-01-09T04:40:28;6.70;;;2.35;;
31760;SDS011;18335;51.486;7.562;2023-01-09T04:42:54;5.25;;;1.48;;
31760;SDS011;18335;51.486;7.562;2023-01-09T04:45:22;7.50;;;2.05;;
31760;SDS011;18335;51.486;7.562;2023-01-09T04:47:49;9.20;;;1.80;;
31760;SDS011;18335;51.486;7.562;2023-01-09T04:50:16;5.15;;;1.63;;
31760;SDS011;18335;51.486;7.562;2023-01-09T04:52:42;6.60;;;2.38;;
31760;SDS011;18335;51.486;7.562;2023-01-09T04:55:09;4.18;;;1.90;;
31760;SDS011;18335;51.486;7.562;2023-01-09T04:57:36;8.23;;;2.72;;
31760;SDS011;18335;51.486;7.562;2023-01-09T05:00:03;9.70;;;2.10;;
31760;SDS011;18335;51.486;7.562;2023-01-09T05:02:35;9.32;;;1.90;;
31760;SDS011;18335;51.486;7.562;2023-01-09T05:05:02;5.32;;;1.83;;
31760;SDS011;18335;51.486;7.562;2023-01-09T05:07:29;7.88;;;1.65;;
31760;SDS011;18335;51.486;7.562;2023-01-09T05:09:56;7.57;;;2.30;;
31760;SDS011;18335;51.486;7.562;2023-01-09T05:12:23;6.20;;;1.85;;
31760;SDS011;18335;51.486;7.562;2023-01-09T05:14:49;7.32;;;2.65;;
31760;SDS011;18335;51.486;7.562;2023-01-09T05:17:16;5.07;;;1.70;;
31760;SDS011;18335;51.486;7.562;2023-01-09T05:19:44;12.60;;;2.75;;
31760;SDS011;18335;51.486;7.562;2023-01-09T05:22:11;5.95;;;1.70;;
31760;SDS011;18335;51.486;7.562;2023-01-09T05:24:38;7.88;;;2.08;;
31760;SDS011;18335;51.486;7.562;2023-01-09T05:27:05;7.75;;;2.92;;
31760;SDS011;18335;51.486;7.562;2023-01-09T05:29:32;6.75;;;2.08;;
31760;SDS011;18335;51.486;7.562;2023-01-09T05:31:58;6.47;;;1.88;;
31760;SDS011;18335;51.486;7.562;2023-01-09T05:34:25;4.07;;;1.45;;
31760;SDS011;18335;51.486;7.562;2023-01-09T05:36:53;8.05;;;2.28;;
31760;SDS011;18335;51.486;7.562;2023-01-09T05:39:20;13.32;;;2.10;;
31760;SDS011;18335;51.486;7.562;2023-01-09T05:41:47;7.30;;;1.83;;
31760;SDS011;18335;51.486;7.562;2023-01-09T05:44:14;7.75;;;2.65;;
31760;SDS011;18335;51.486;7.562;2023-01-09T05:46:40;5.15;;;1.80;;
31760;SDS011;18335;51.486;7.562;2023-01-09T05:49:07;5.30;;;1.67;;
31760;SDS011;18335;51.486;7.562;2023-01-09T05:51:34;7.57;;;2.00;;
31760;SDS011;18335;51.486;7.562;2023-01-09T05:54:02;5.38;;;1.50;;
31760;SDS011;18335;51.486;7.562;2023-01-09T05:56:31;5.80;;;1.60;;
31760;SDS011;18335;51.486;7.562;2023-01-09T05:58:58;9.20;;;1.83;;
31760;SDS011;18335;51.486;7.562;2023-01-09T06:01:25;7.47;;;1.45;;
31760;SDS011;18335;51.486;7.562;2023-01-09T06:03:51;7.95;;;1.40;;
31760;SDS011;18335;51.486;7.562;2023-01-09T06:06:18;4.60;;;1.17;;
31760;SDS011;18335;51.486;7.562;2023-01-09T06:08:45;6.90;;;1.80;;
31760;SDS011;18335;51.486;7.562;2023-01-09T06:11:13;5.93;;;1.00;;
31760;SDS011;18335;51.486;7.562;2023-01-09T06:13:39;5.68;;;1.48;;
31760;SDS011;18335;51.486;7.562;2023-01-09T06:16:06;8.77;;;1.23;;
31760;SDS011;18335;51.486;7.562;2023-01-09T06:18:33;5.10;;;0.80;;
31760;SDS011;18335;51.486;7.562;2023-01-09T06:21:00;4.65;;;1.10;;
31760;SDS011;18335;51.486;7.562;2023-01-09T06:23:27;8.38;;;1.63;;
31760;SDS011;18335;51.486;7.562;2023-01-09T06:25:53;6.80;;;1.10;;
31760;SDS011;18335;51.486;7.562;2023-01-09T06:28:21;7.25;;;1.40;;
31760;SDS011;18335;51.486;7.562;2023-01-09T06:30:49;2.95;;;0.88;;
31760;SDS011;18335;51.486;7.562;2023-01-09T06:33:16;3.60;;;0.98;;
31760;SDS011;18335;51.486;7.562;2023-01-09T06:35:43;7.38;;;1.17;;
31760;SDS011;18335;51.486;7.562;2023-01-09T06:38:09;10.73;;;1.05;;
31760;SDS011;18335;51.486;7.562;2023-01-09T06:40:36;10.13;;;1.40;;
31760;SDS011;18335;51.486;7.562;2023-01-09T06:43:03;9.88;;;1.13;;
31760;SDS011;18335;51.486;7.562;2023-01-09T06:45:31;5.68;;;1.40;;
31760;SDS011;18335;51.486;7.562;2023-01-09T06:47:58;4.90;;;0.90;;
31760;SDS011;18335;51.486;7.562;2023-01-09T06:50:24;4.13;;;1.50;;
31760;SDS011;18335;51.486;7.562;2023-01-09T06:52:51;7.22;;;1.65;;
31760;SDS011;18335;51.486;7.562;2023-01-09T06:55:18;6.50;;;1.00;;
31760;SDS011;18335;51.486;7.562;2023-01-09T06:57:44;9.45;;;1.02;;
31760;SDS011;18335;51.486;7.562;2023-01-09T07:00:11;7.47;;;1.27;;
31760;SDS011;18335;51.486;7.562;2023-01-09T07:02:40;11.88;;;2.88;;
31760;SDS011;18335;51.486;7.562;2023-01-09T07:05:07;8.55;;;1.23;;
31760;SDS011;18335;51.486;7.562;2023-01-09T07:07:36;6.03;;;1.35;;
31760;SDS011;18335;51.486;7.562;2023-01-09T07:10:03;4.07;;;1.00;;
31760;SDS011;18335;51.486;7.562;2023-01-09T07:12:30;7.43;;;2.85;;
31760;SDS011;18335;51.486;7.562;2023-01-09T07:14:56;3.83;;;0.93;;
31760;SDS011;18335;51.486;7.562;2023-01-09T07:17:23;5.63;;;1.23;;
31760;SDS011;18335;51.486;7.562;2023-01-09T07:19:51;5.05;;;0.90;;
31760;SDS011;18335;51.486;7.562;2023-01-09T07:22:18;4.60;;;0.90;;
31760;SDS011;18335;51.486;7.562;2023-01-09T07:24:45;3.90;;;1.13;;
31760;SDS011;18335;51.486;7.562;2023-01-09T07:27:12;11.25;;;3.08;;
31760;SDS011;18335;51.486;7.562;2023-01-09T07:29:38;6.97;;;1.08;;
31760;SDS011;18335;51.486;7.562;2023-01-09T07:32:05;4.97;;;0.90;;
31760;SDS011;18335;51.486;7.562;2023-01-09T07:34:32;2.90;;;0.90;;
31760;SDS011;18335;51.486;7.562;2023-01-09T07:37:00;7.60;;;1.52;;
31760;SDS011;18335;51.486;7.562;2023-01-09T07:39:27;5.20;;;1.10;;
31760;SDS011;18335;51.486;7.562;2023-01-09T07:41:54;5.47;;;1.10;;
31760;SDS011;18335;51.486;7.562;2023-01-09T07:44:20;3.25;;;1.10;;
31760;SDS011;18335;51.486;7.562;2023-01-09T07:46:47;5.65;;;0.95;;
31760;SDS011;18335;51.486;7.562;2023-01-09T07:49:14;2.83;;;0.73;;
31760;SDS011;18335;51.486;7.562;2023-01-09T07:51:40;4.95;;;0.70;;
31760;SDS011;18335;51.486;7.562;2023-01-09T07:54:10;2.25;;;0.75;;
31760;SDS011;18335;51.486;7.562;2023-01-09T07:56:37;5.90;;;1.27;;
31760;SDS011;18335;51.486;7.562;2023-01-09T07:59:04;3.78;;;0.77;;
31760;SDS011;18335;51.486;7.562;2023-01-09T08:01:31;5.10;;;1.58;;
31760;SDS011;18335;51.486;7.562;2023-01-09T08:03:58;5.35;;;1.10;;
31760;SDS011;18335;51.486;7.562;2023-01-09T08:06:25;8.45;;;1.10;;
31760;SDS011;18335;51.486;7.562;2023-01-09T08:08:51;6.50;;;0.95;;
31760;SDS011;18335;51.486;7.562;2023-01-09T08:11:20;5.32;;;1.02;;
31760;SDS011;18335;51.486;7.562;2023-01-09T08:13:46;4.40;;;0.88;;
31760;SDS011;18335;51.486;7.562;2023-01-09T08:16:13;4.28;;;0.90;;
31760;SDS011;18335;51.486;7.562;2023-01-09T08:18:40;4.93;;;1.60;;
31760;SDS011;18335;51.486;7.562;2023-01-09T08:21:07;5.28;;;1.23;;
31760;SDS011;18335;51.486;7.562;2023-01-09T08:23:35;5.50;;;0.88;;
31760;SDS011;18335;51.486;7.562;2023-01-09T08:26:02;19.02;;;2.22;;
31760;SDS011;18335;51.486;7.562;2023-01-09T08:28:30;6.57;;;1.08;;
31760;SDS011;18335;51.486;7.562;2023-01-09T08:30:57;3.60;;;0.80;;
31760;SDS011;18335;51.486;7.562;2023-01-09T08:33:24;5.40;;;0.95;;
31760;SDS011;18335;51.486;7.562;2023-01-09T08:35:51;6.32;;;1.10;;
31760;SDS011;18335;51.486;7.562;2023-01-09T08:38:18;5.53;;;1.17;;
31760;SDS011;18335;51.486;7.562;2023-01-09T08:40:46;5.95;;;0.95;;
31760;SDS011;18335;51.486;7.562;2023-01-09T08:43:13;9.55;;;1.27;;
31760;SDS011;18335;51.486;7.562;2023-01-09T08:45:59;4.63;;;0.93;;
31760;SDS011;18335;51.486;7.562;2023-01-09T08:48:40;4.72;;;0.80;;
31760;SDS011;18335;51.486;7.562;2023-01-09T08:51:07;5.80;;;1.20;;
31760;SDS011;18335;51.486;7.562;2023-01-09T08:53:34;6.55;;;1.00;;
31760;SDS011;18335;51.486;7.562;2023-01-09T08:56:01;4.18;;;1.13;;
31760;SDS011;18335;51.486;7.562;2023-01-09T08:58:28;6.38;;;1.20;;
31760;SDS011;18335;51.486;7.562;2023-01-09T09:00:55;5.60;;;1.23;;
31760;SDS011;18335;51.486;7.562;2023-01-09T09:03:24;3.28;;;0.70;;
31760;SDS011;18335;51.486;7.562;2023-01-09T09:05:51;5.75;;;1.27;;
31760;SDS011;18335;51.486;7.562;2023-01-09T09:08:17;2.72;;;1.00;;
31760;SDS011;18335;51.486;7.562;2023-01-09T09:10:45;4.00;;;1.10;;
31760;SDS011;18335;51.486;7.562;2023-01-09T09:13:12;5.95;;;1.00;;
31760;SDS011;18335;51.486;7.562;2023-01-09T09:15:38;2.58;;;0.75;;
31760;SDS011;18335;51.486;7.562;2023-01-09T09:18:05;4.40;;;1.83;;
31760;SDS011;18335;51.486;7.562;2023-01-09T09:20:35;5.85;;;0.90;;
31760;SDS011;18335;51.486;7.562;2023-01-09T09:23:03;3.67;;;0.80;;
31760;SDS011;18335;51.486;7.562;2023-01-09T09:25:32;7.45;;;1.63;;
31760;SDS011;18335;51.486;7.562;2023-01-09T09:27:59;6.60;;;1.38;;
31760;SDS011;18335;51.486;7.562;2023-01-09T09:30:26;6.93;;;2.45;;
31760;SDS011;18335;51.486;7.562;2023-01-09T09:32:53;12.55;;;3.38;;
31760;SDS011;18335;51.486;7.562;2023-01-09T09:35:20;6.85;;;1.70;;
31760;SDS011;18335;51.486;7.562;2023-01-09T09:37:55;6.13;;;1.42;;
31760;SDS011;18335;51.486;7.562;2023-01-09T09:40:26;5.18;;;1.40;;
31760;SDS011;18335;51.486;7.562;2023-01-09T09:43:13;8.13;;;1.77;;
31760;SDS011;18335;51.486;7.562;2023-01-09T09:46:08;2.83;;;0.75;;
31760;SDS011;18335;51.486;7.562;2023-01-09T09:48:41;5.35;;;0.93;;
31760;SDS011;18335;51.486;7.562;2023-01-09T09:51:23;6.15;;;0.80;;
31760;SDS011;18335;51.486;7.562;2023-01-09T09:54:01;5.15;;;0.82;;
31760;SDS011;18335;51.486;7.562;2023-01-09T09:56:33;3.22;;;1.00;;
31760;SDS011;18335;51.486;7.562;2023-01-09T09:59:03;6.80;;;1.50;;
31760;SDS011;18335;51.486;7.562;2023-01-09T10:01:38;6.10;;;1.63;;
31760;SDS011;18335;51.486;7.562;2023-01-09T10:04:08;2.35;;;0.70;;
31760;SDS011;18335;51.486;7.562;2023-01-09T10:06:39;3.70;;;1.00;;
31760;SDS011;18335;51.486;7.562;2023-01-09T10:09:12;2.58;;;0.55;;
31760;SDS011;18335;51.486;7.562;2023-01-09T10:11:50;7.90;;;1.15;;
31760;SDS011;18335;51.486;7.562;2023-01-09T10:14:22;6.60;;;1.15;;
31760;SDS011;18335;51.486;7.562;2023-01-09T10:19:57;3.70;;;0.90;;
31760;SDS011;18335;51.486;7.562;2023-01-09T10:22:39;6.68;;;1.60;;
31760;SDS011;18335;51.486;7.562;2023-01-09T10:25:19;4.90;;;1.10;;
31760;SDS011;18335;51.486;7.562;2023-01-09T10:27:57;8.00;;;1.10;;
31760;SDS011;18335;51.486;7.562;2023-01-09T10:30:33;4.88;;;1.15;;
31760;SDS011;18335;51.486;7.562;2023-01-09T10:33:11;4.13;;;1.20;;
31760;SDS011;18335;51.486;7.562;2023-01-09T10:35:50;6.30;;;1.30;;
31760;SDS011;18335;51.486;7.562;2023-01-09T10:38:30;6.95;;;1.60;;
31760;SDS011;18335;51.486;7.562;2023-01-09T10:41:01;8.18;;;1.25;;
31760;SDS011;18335;51.486;7.562;2023-01-09T10:43:33;10.82;;;1.35;;
31760;SDS011;18335;51.486;7.562;2023-01-09T10:46:08;5.00;;;1.95;;
31760;SDS011;18335;51.486;7.562;2023-01-09T10:48:41;5.78;;;1.20;;
31760;SDS011;18335;51.486;7.562;2023-01-09T10:51:13;7.43;;;1.80;;
31760;SDS011;18335;51.486;7.562;2023-01-09T10:53:44;4.15;;;1.50;;
31760;SDS011;18335;51.486;7.562;2023-01-09T10:56:17;5.82;;;1.55;;
31760;SDS011;18335;51.486;7.562;2023-01-09T10:58:48;7.00;;;1.98;;
31760;SDS011;18335;51.486;7.562;2023-01-09T11:01:16;5.82;;;2.28;;
31760;SDS011;18335;51.486;7.562;2023-01-09T11:03:47;6.60;;;1.40;;
31760;SDS011;18335;51.486;7.562;2023-01-09T11:06:17;9.70;;;2.20;;
31760;SDS011;18335;51.486;7.562;2023-01-09T11:08:47;4.50;;;1.75;;
31760;SDS011;18335;51.486;7.562;2023-01-09T11:11:30;6.95;;;1.70;;
31760;SDS011;18335;51.486;7.562;2023-01-09T11:14:06;4.07;;;1.48;;
31760;SDS011;18335;51.486;7.562;2023-01-09T11:16:41;7.40;;;1.70;;
31760;SDS011;18335;51.486;7.562;2023-01-09T11:19:16;4.40;;;1.33;;
31760;SDS011;18335;51.486;7.562;2023-01-09T11:21:43;6.82;;;1.58;;
31760;SDS011;18335;51.486;7.562;2023-01-09T11:24:26;8.43;;;1.95;;
31760;SDS011;18335;51.486;7.562;2023-01-09T11:32:39;8.75;;;1.48;;
31760;SDS011;18335;51.486;7.562;2023-01-09T11:35:06;7.35;;;1.70;;
31760;SDS011;18335;51.486;7.562;2023-01-09T11:37:44;7.10;;;1.80;;
31760;SDS011;18335;51.486;7.562;2023-01-09T11:40:15;4.93;;;1.20;;
31760;SDS011;18335;51.486;7.562;2023-01-09T11:45:29;6.68;;;1.20;;
31760;SDS011;18335;51.486;7.562;2023-01-09T11:47:59;3.88;;;1.48;;
31760;SDS011;18335;51.486;7.562;2023-01-09T11:50:29;6.95;;;1.40;;
31760;SDS011;18335;51.486;7.562;2023-01-09T11:53:12;6.78;;;1.38;;
31760;SDS011;18335;51.486;7.562;2023-01-09T11:55:40;7.82;;;1.85;;
31760;SDS011;18335;51.486;7.562;2023-01-09T11:58:10;6.30;;;1.33;;
31760;SDS011;18335;51.486;7.562;2023-01-09T12:00:41;4.78;;;1.27;;
31760;SDS011;18335;51.486;7.562;2023-01-09T12:05:47;8.23;;;1.10;;
31760;SDS011;18335;51.486;7.562;2023-01-09T12:08:25;6.25;;;1.60;;
31760;SDS011;18335;51.486;7.562;2023-01-09T12:11:16;10.45;;;1.42;;
31760;SDS011;18335;51.486;7.562;2023-01-09T12:13:54;5.82;;;1.15;;
31760;SDS011;18335;51.486;7.562;2023-01-09T12:16:32;5.60;;;1.27;;
31760;SDS011;18335;51.486;7.562;2023-01-09T12:21:57;6.75;;;1.23;;
31760;SDS011;18335;51.486;7.562;2023-01-09T12:24:40;10.07;;;2.00;;
31760;SDS011;18335;51.486;7.562;2023-01-09T12:27:24;5.80;;;2.22;;
31760;SDS011;18335;51.486;7.562;2023-01-09T12:30:03;7.15;;;1.25;;
31760;SDS011;18335;51.486;7.562;2023-01-09T12:35:21;5.38;;;0.90;;
31760;SDS011;18335;51.486;7.562;2023-01-09T12:38:00;5.40;;;1.45;;
31760;SDS011;18335;51.486;7.562;2023-01-09T12:43:48;6.93;;;1.05;;
31760;SDS011;18335;51.486;7.562;2023-01-09T12:46:25;7.45;;;2.10;;
31760;SDS011;18335;51.486;7.562;2023-01-09T12:49:07;11.65;;;1.65;;
31760;SDS011;18335;51.486;7.562;2023-01-09T12:51:50;6.85;;;1.23;;
31760;SDS011;18335;51.486;7.562;2023-01-09T12:54:26;7.57;;;1.23;;
31760;SDS011;18335;51.486;7.562;2023-01-09T12:56:59;8.38;;;1.52;;
31760;SDS011;18335;51.486;7.562;2023-01-09T12:59:31;5.25;;;0.90;;
31760;SDS011;18335;51.486;7.562;2023-01-09T13:02:08;8.48;;;1.15;;
31760;SDS011;18335;51.486;7.562;2023-01-09T13:04:44;7.60;;;1.20;;
31760;SDS011;18335;51.486;7.562;2023-01-09T13:07:18;5.45;;;1.23;;
31760;SDS011;18335;51.486;7.562;2023-01-09T13:09:49;3.90;;;1.10;;
31760;SDS011;18335;51.486;7.562;2023-01-09T13:12:21;3.95;;;1.15;;
31760;SDS011;18335;51.486;7.562;2023-01-09T13:14:51;4.30;;;1.17;;
31760;SDS011;18335;51.486;7.562;2023-01-09T13:17:22;9.35;;;1.58;;
31760;SDS011;18335;51.486;7.562;2023-01-09T13:19:54;7.20;;;1.25;;
31760;SDS011;18335;51.486;7.562;2023-01-09T13:22:21;5.95;;;1.33;;
31760;SDS011;18335;51.486;7.562;2023-01-09T13:24:53;3.70;;;1.30;;
31760;SDS011;18335;51.486;7.562;2023-01-09T13:27:31;6.28;;;1.48;;
31760;SDS011;18335;51.486;7.562;2023-01-09T13:30:05;5.40;;;1.63;;
31760;SDS011;18335;51.486;7.562;2023-01-09T13:32:43;7.25;;;1.55;;
31760;SDS011;18335;51.486;7.562;2023-01-09T13:35:23;8.73;;;2.33;;
31760;SDS011;18335;51.486;7.562;2023-01-09T13:37:50;11.38;;;2.10;;
31760;SDS011;18335;51.486;7.562;2023-01-09T13:40:27;8.02;;;1.92;;
31760;SDS011;18335;51.486;7.562;2023-01-09T13:42:57;6.22;;;1.77;;
31760;SDS011;18335;51.486;7.562;2023-01-09T13:45:27;6.35;;;1.67;;
31760;SDS011;18335;51.486;7.562;2023-01-09T13:50:50;4.53;;;1.63;;
31760;SDS011;18335;51.486;7.562;2023-01-09T13:56:12;7.70;;;1.40;;
31760;SDS011;18335;51.486;7.562;2023-01-09T13:58:56;6.70;;;1.85;;
31760;SDS011;18335;51.486;7.562;2023-01-09T14:01:41;6.57;;;1.63;;
31760;SDS011;18335;51.486;7.562;2023-01-09T14:04:26;4.95;;;1.48;;
31760;SDS011;18335;51.486;7.562;2023-01-09T14:07:19;6.82;;;1.70;;
31760;SDS011;18335;51.486;7.562;2023-01-09T14:09:49;4.00;;;1.42;;
31760;SDS011;18335;51.486;7.562;2023-01-09T14:12:19;6.07;;;1.92;;
31760;SDS011;18335;51.486;7.562;2023-01-09T14:14:47;8.10;;;2.55;;
31760;SDS011;18335;51.486;7.562;2023-01-09T14:17:17;5.20;;;1.50;;
31760;SDS011;18335;51.486;7.562;2023-01-09T14:19:52;8.10;;;1.85;;
31760;SDS011;18335;51.486;7.562;2023-01-09T14:22:25;8.15;;;1.50;;
31760;SDS011;18335;51.486;7.562;2023-01-09T14:24:54;4.80;;;1.75;;
31760;SDS011;18335;51.486;7.562;2023-01-09T14:30:33;4.75;;;1.60;;
31760;SDS011;18335;51.486;7.562;2023-01-09T14:33:02;5.90;;;2.10;;
31760;SDS011;18335;51.486;7.562;2023-01-09T14:35:37;6.53;;;1.60;;
31760;SDS011;18335;51.486;7.562;2023-01-09T14:38:18;8.40;;;2.08;;
31760;SDS011;18335;51.486;7.562;2023-01-09T14:40:58;7.50;;;2.17;;
31760;SDS011;18335;51.486;7.562;2023-01-09T14:43:37;7.28;;;1.60;;
31760;SDS011;18335;51.486;7.562;2023-01-09T14:46:10;4.85;;;1.40;;
31760;SDS011;18335;51.486;7.562;2023-01-09T14:48:41;7.80;;;1.90;;
31760;SDS011;18335;51.486;7.562;2023-01-09T14:51:24;8.32;;;3.67;;
31760;SDS011;18335;51.486;7.562;2023-01-09T14:53:54;10.55;;;2.55;;
31760;SDS011;18335;51.486;7.562;2023-01-09T14:56:25;5.25;;;1.50;;
31760;SDS011;18335;51.486;7.562;2023-01-09T14:59:03;5.00;;;1.95;;
31760;SDS011;18335;51.486;7.562;2023-01-09T15:01:31;6.45;;;2.13;;
31760;SDS011;18335;51.486;7.562;2023-01-09T15:04:01;8.95;;;2.28;;
31760;SDS011;18335;51.486;7.562;2023-01-09T15:06:32;9.50;;;2.53;;
31760;SDS011;18335;51.486;7.562;2023-01-09T15:09:07;10.52;;;3.30;;
31760;SDS011;18335;51.486;7.562;2023-01-09T15:11:45;10.18;;;3.03;;
31760;SDS011;18335;51.486;7.562;2023-01-09T15:14:12;5.80;;;2.30;;
31760;SDS011;18335;51.486;7.562;2023-01-09T15:16:47;8.97;;;3.03;;
31760;SDS011;18335;51.486;7.562;2023-01-09T15:19:14;7.93;;;2.30;;
31760;SDS011;18335;51.486;7.562;2023-01-09T15:21:54;8.50;;;2.63;;
31760;SDS011;18335;51.486;7.562;2023-01-09T15:24:23;9.48;;;2.55;;
31760;SDS011;18335;51.486;7.562;2023-01-09T15:26:54;10.00;;;3.28;;
31760;SDS011;18335;51.486;7.562;2023-01-09T15:29:40;9.90;;;2.65;;
31760;SDS011;18335;51.486;7.562;2023-01-09T15:32:08;5.25;;;2.15;;
31760;SDS011;18335;51.486;7.562;2023-01-09T15:34:42;9.82;;;2.30;;
31760;SDS011;18335;51.486;7.562;2023-01-09T15:37:15;9.55;;;2.67;;
31760;SDS011;18335;51.486;7.562;2023-01-09T15:39:51;7.55;;;2.38;;
31760;SDS011;18335;51.486;7.562;2023-01-09T15:42:19;5.82;;;2.10;;
31760;SDS011;18335;51.486;7.562;2023-01-09T15:45:12;6.32;;;1.95;;
31760;SDS011;18335;51.486;7.562;2023-01-09T15:47:48;8.50;;;2.80;;
31760;SDS011;18335;51.486;7.562;2023-01-09T15:50:15;7.05;;;2.72;;
31760;SDS011;18335;51.486;7.562;2023-01-09T15:52:46;6.80;;;2.05;;
31760;SDS011;18335;51.486;7.562;2023-01-09T15:55:16;13.68;;;2.45;;